sensor_id;sensor_type;location;lat;lon;timestamp;P1;durP1;ratioP1;P2;durP2;ratioP2
18104;SDS011;9179;50.968;3.134;2023-10-09T00:01:42;10.23;;;8.45;;
18104;SDS011;9179;50.968;3.134;2023-10-09T00:04:11;9.85;;;8.38;;
18104;SDS011;9179;50.968;3.134;2023-10-09T00:06:40;8.57;;;7.63;;
18104;SDS011;9179;50.968;3.134;2023-10-09T00:09:07;10.77;;;9.60;;
18104;SDS011;9179;50.968;3.134;2023-10-09T00:11:55;9.95;;;8.90;;
18104;SDS011;9179;50.968;3.134;2023-10-09T00:14:23;10.45;;;7.57;;
18104;SDS011;9179;50.968;3.134;2023-10-09T00:16:50;8.75;;;7.88;;
18104;SDS011;9179;50.968;3.134;2023-10-09T00:19:29;9.57;;;8.05;;
18104;SDS011;9179;50.968;3.134;2023-10-09T00:21:59;11.82;;;9.80;;
18104;SDS011;9179;50.968;3.134;2023-10-09T00:24:34;9.45;;;8.60;;
18104;SDS011;9179;50.968;3.134;2023-10-09T00:27:02;9.63;;;8.70;;
18104;SDS011;9179;50.968;3.134;2023-10-09T00:29:37;9.13;;;8.38;;
18104;SDS011;9179;50.968;3.134;2023-10-09T00:32:10;10.30;;;8.63;;
18104;SDS011;9179;50.968;3.134;2023-10-09T00:34:41;9.48;;;8.57;;
18104;SDS011;9179;50.968;3.134;2023-10-09T00:37:10;10.68;;;9.13;;
18104;SDS011;9179;50.968;3.134;2023-10-09T00:39:41;11.65;;;9.40;;
18104;SDS011;9179;50.968;3.134;2023-10-09T00:42:09;9.00;;;8.13;;
18104;SDS011;9179;50.968;3.134;2023-10-09T00:44:39;9.82;;;8.73;;
18104;SDS011;9179;50.968;3.134;2023-10-09T00:47:07;11.10;;;9.02;;
18104;SDS011;9179;50.968;3.134;2023-10-09T00:49:46;9.40;;;8.55;;
18104;SDS011;9179;50.968;3.134;2023-10-09T00:52:21;9.35;;;8.50;;
18104;SDS011;9179;50.968;3.134;2023-10-09T00:54:56;9.38;;;8.20;;
18104;SDS011;9179;50.968;3.134;2023-10-09T00:57:27;9.10;;;8.13;;
18104;SDS011;9179;50.968;3.134;2023-10-09T00:59:57;11.55;;;8.77;;
18104;SDS011;9179;50.968;3.134;2023-10-09T01:02:27;8.73;;;7.78;;
18104;SDS011;9179;50.968;3.134;2023-10-09T01:05:02;9.02;;;8.05;;
18104;SDS011;9179;50.968;3.134;2023-10-09T01:07:46;9.30;;;8.30;;
18104;SDS011;9179;50.968;3.134;2023-10-09T01:10:23;9.15;;;8.35;;
18104;SDS011;9179;50.968;3.134;2023-10-09T01:12:59;11.52;;;8.93;;
18104;SDS011;9179;50.968;3.134;2023-10-09T01:15:27;9.65;;;8.25;;
18104;SDS011;9179;50.968;3.134;2023-10-09T01:18:09;10.07;;;8.90;;
18104;SDS011;9179;50.968;3.134;2023-10-09T01:20:36;10.95;;;8.35;;
18104;SDS011;9179;50.968;3.134;2023-10-09T01:23:09;10.65;;;9.45;;
18104;SDS011;9179;50.968;3.134;2023-10-09T01:25:37;9.68;;;7.60;;
18104;SDS011;9179;50.968;3.134;2023-10-09T01:28:14;9.13;;;8.23;;
18104;SDS011;9179;50.968;3.134;2023-10-09T01:30:42;8.55;;;7.75;;
18104;SDS011;9179;50.968;3.134;2023-10-09T01:33:10;9.38;;;8.57;;
18104;SDS011;9179;50.968;3.134;2023-10-09T01:35:52;11.27;;;8.27;;
18104;SDS011;9179;50.968;3.134;2023-10-09T01:38:25;9.65;;;8.70;;
18104;SDS011;9179;50.968;3.134;2023-10-09T01:41:05;8.52;;;7.70;;
18104;SDS011;9179;50.968;3.134;2023-10-09T01:43:34;8.45;;;7.65;;
18104;SDS011;9179;50.968;3.134;2023-10-09T01:46:03;8.80;;;7.97;;
18104;SDS011;9179;50.968;3.134;2023-10-09T01:48:30;9.60;;;8.60;;
18104;SDS011;9179;50.968;3.134;2023-10-09T01:51:03;9.77;;;8.77;;
18104;SDS011;9179;50.968;3.134;2023-10-09T01:53:35;9.43;;;8.43;;
18104;SDS011;9179;50.968;3.134;2023-10-09T01:56:12;9.38;;;8.45;;
18104;SDS011;9179;50.968;3.134;2023-10-09T01:58:41;9.40;;;8.43;;
18104;SDS011;9179;50.968;3.134;2023-10-09T02:01:12;13.40;;;9.73;;
18104;SDS011;9179;50.968;3.134;2023-10-09T02:03:40;10.82;;;9.73;;
18104;SDS011;9179;50.968;3.134;2023-10-09T02:06:08;11.88;;;9.07;;
18104;SDS011;9179;50.968;3.134;2023-10-09T02:08:52;10.52;;;9.43;;
18104;SDS011;9179;50.968;3.134;2023-10-09T02:11:21;11.38;;;10.13;;
18104;SDS011;9179;50.968;3.134;2023-10-09T02:14:01;10.38;;;9.40;;
18104;SDS011;9179;50.968;3.134;2023-10-09T02:16:41;11.63;;;10.43;;
18104;SDS011;9179;50.968;3.134;2023-10-09T02:19:08;11.00;;;9.98;;
18104;SDS011;9179;50.968;3.134;2023-10-09T02:21:54;12.85;;;10.63;;
18104;SDS011;9179;50.968;3.134;2023-10-09T02:24:25;14.27;;;11.30;;
18104;SDS011;9179;50.968;3.134;2023-10-09T02:27:15;13.00;;;11.57;;
18104;SDS011;9179;50.968;3.134;2023-10-09T02:30:05;13.50;;;12.13;;
18104;SDS011;9179;50.968;3.134;2023-10-09T02:32:41;15.43;;;13.98;;
18104;SDS011;9179;50.968;3.134;2023-10-09T02:35:09;15.38;;;13.70;;
18104;SDS011;9179;50.968;3.134;2023-10-09T02:37:45;15.63;;;14.00;;
18104;SDS011;9179;50.968;3.134;2023-10-09T02:40:13;15.13;;;13.65;;
18104;SDS011;9179;50.968;3.134;2023-10-09T02:42:48;16.20;;;14.60;;
18104;SDS011;9179;50.968;3.134;2023-10-09T02:45:16;16.95;;;15.15;;
18104;SDS011;9179;50.968;3.134;2023-10-09T02:47:43;16.83;;;15.23;;
18104;SDS011;9179;50.968;3.134;2023-10-09T02:50:13;18.67;;;16.83;;
18104;SDS011;9179;50.968;3.134;2023-10-09T02:52:46;17.70;;;15.90;;
18104;SDS011;9179;50.968;3.134;2023-10-09T02:55:19;20.00;;;17.90;;
18104;SDS011;9179;50.968;3.134;2023-10-09T02:57:51;19.50;;;17.58;;
18104;SDS011;9179;50.968;3.134;2023-10-09T03:00:29;20.45;;;17.90;;
18104;SDS011;9179;50.968;3.134;2023-10-09T03:02:57;18.48;;;16.63;;
18104;SDS011;9179;50.968;3.134;2023-10-09T03:05:24;19.30;;;17.15;;
18104;SDS011;9179;50.968;3.134;2023-10-09T03:07:53;20.20;;;18.17;;
18104;SDS011;9179;50.968;3.134;2023-10-09T03:10:23;19.45;;;17.55;;
18104;SDS011;9179;50.968;3.134;2023-10-09T03:12:50;19.45;;;17.45;;
18104;SDS011;9179;50.968;3.134;2023-10-09T03:15:18;19.05;;;17.05;;
18104;SDS011;9179;50.968;3.134;2023-10-09T03:17:45;18.05;;;16.35;;
18104;SDS011;9179;50.968;3.134;2023-10-09T03:20:13;19.45;;;17.48;;
18104;SDS011;9179;50.968;3.134;2023-10-09T03:22:42;18.92;;;17.15;;
18104;SDS011;9179;50.968;3.134;2023-10-09T03:25:11;20.52;;;18.33;;
18104;SDS011;9179;50.968;3.134;2023-10-09T03:27:41;19.20;;;17.13;;
18104;SDS011;9179;50.968;3.134;2023-10-09T03:30:10;19.40;;;17.30;;
18104;SDS011;9179;50.968;3.134;2023-10-09T03:32:42;18.65;;;16.85;;
18104;SDS011;9179;50.968;3.134;2023-10-09T03:35:12;19.67;;;17.73;;
18104;SDS011;9179;50.968;3.134;2023-10-09T03:37:42;20.55;;;18.38;;
18104;SDS011;9179;50.968;3.134;2023-10-09T03:40:10;20.50;;;18.38;;
18104;SDS011;9179;50.968;3.134;2023-10-09T03:42:44;20.42;;;18.30;;
18104;SDS011;9179;50.968;3.134;2023-10-09T03:45:11;21.25;;;18.98;;
18104;SDS011;9179;50.968;3.134;2023-10-09T03:47:49;21.90;;;19.02;;
18104;SDS011;9179;50.968;3.134;2023-10-09T03:50:36;21.08;;;19.00;;
18104;SDS011;9179;50.968;3.134;2023-10-09T03:53:03;21.25;;;19.13;;
18104;SDS011;9179;50.968;3.134;2023-10-09T03:55:33;21.65;;;19.42;;
18104;SDS011;9179;50.968;3.134;2023-10-09T03:58:04;21.52;;;19.30;;
18104;SDS011;9179;50.968;3.134;2023-10-09T04:00:31;21.33;;;19.33;;
18104;SDS011;9179;50.968;3.134;2023-10-09T04:03:09;21.95;;;19.65;;
18104;SDS011;9179;50.968;3.134;2023-10-09T04:05:36;21.60;;;19.40;;
18104;SDS011;9179;50.968;3.134;2023-10-09T04:08:06;21.65;;;19.52;;
18104;SDS011;9179;50.968;3.134;2023-10-09T04:10:41;23.00;;;19.20;;
18104;SDS011;9179;50.968;3.134;2023-10-09T04:13:18;21.48;;;19.48;;
18104;SDS011;9179;50.968;3.134;2023-10-09T04:15:49;21.35;;;19.15;;
18104;SDS011;9179;50.968;3.134;2023-10-09T04:18:18;21.73;;;19.45;;
18104;SDS011;9179;50.968;3.134;2023-10-09T04:20:53;22.55;;;20.15;;
18104;SDS011;9179;50.968;3.134;2023-10-09T04:23:38;22.70;;;20.27;;
18104;SDS011;9179;50.968;3.134;2023-10-09T04:26:19;22.40;;;20.08;;
18104;SDS011;9179;50.968;3.134;2023-10-09T04:28:47;22.15;;;19.95;;
18104;SDS011;9179;50.968;3.134;2023-10-09T04:31:17;24.50;;;21.08;;
18104;SDS011;9179;50.968;3.134;2023-10-09T04:33:46;24.95;;;22.33;;
18104;SDS011;9179;50.968;3.134;2023-10-09T04:36:40;23.50;;;21.13;;
18104;SDS011;9179;50.968;3.134;2023-10-09T04:39:14;22.63;;;20.27;;
18104;SDS011;9179;50.968;3.134;2023-10-09T04:42:00;23.75;;;21.35;;
18104;SDS011;9179;50.968;3.134;2023-10-09T04:44:46;22.08;;;19.50;;
18104;SDS011;9179;50.968;3.134;2023-10-09T04:47:45;23.17;;;20.75;;
18104;SDS011;9179;50.968;3.134;2023-10-09T04:50:23;24.80;;;22.33;;
18104;SDS011;9179;50.968;3.134;2023-10-09T04:53:12;24.40;;;21.95;;
18104;SDS011;9179;50.968;3.134;2023-10-09T04:55:50;23.77;;;21.35;;
18104;SDS011;9179;50.968;3.134;2023-10-09T04:58:20;24.95;;;22.13;;
18104;SDS011;9179;50.968;3.134;2023-10-09T05:00:52;23.42;;;21.15;;
18104;SDS011;9179;50.968;3.134;2023-10-09T05:03:40;25.85;;;23.27;;
18104;SDS011;9179;50.968;3.134;2023-10-09T05:06:10;22.52;;;20.33;;
18104;SDS011;9179;50.968;3.134;2023-10-09T05:09:03;23.00;;;20.48;;
18104;SDS011;9179;50.968;3.134;2023-10-09T05:11:40;26.15;;;23.52;;
18104;SDS011;9179;50.968;3.134;2023-10-09T05:14:34;23.10;;;20.90;;
18104;SDS011;9179;50.968;3.134;2023-10-09T05:17:20;24.17;;;21.50;;
18104;SDS011;9179;50.968;3.134;2023-10-09T05:19:50;25.17;;;22.55;;
18104;SDS011;9179;50.968;3.134;2023-10-09T05:22:43;23.08;;;20.27;;
18104;SDS011;9179;50.968;3.134;2023-10-09T05:25:22;24.77;;;22.23;;
18104;SDS011;9179;50.968;3.134;2023-10-09T05:28:17;26.58;;;23.80;;
18104;SDS011;9179;50.968;3.134;2023-10-09T05:31:13;25.80;;;22.23;;
18104;SDS011;9179;50.968;3.134;2023-10-09T05:34:02;24.83;;;21.75;;
18104;SDS011;9179;50.968;3.134;2023-10-09T05:36:31;23.92;;;21.65;;
18104;SDS011;9179;50.968;3.134;2023-10-09T05:39:00;27.83;;;24.88;;
18104;SDS011;9179;50.968;3.134;2023-10-09T05:41:42;24.85;;;21.73;;
18104;SDS011;9179;50.968;3.134;2023-10-09T05:44:17;26.42;;;23.83;;
18104;SDS011;9179;50.968;3.134;2023-10-09T05:47:13;26.23;;;23.63;;
18104;SDS011;9179;50.968;3.134;2023-10-09T05:49:57;26.20;;;23.55;;
18104;SDS011;9179;50.968;3.134;2023-10-09T05:52:42;26.25;;;23.15;;
18104;SDS011;9179;50.968;3.134;2023-10-09T05:55:35;25.02;;;22.45;;
18104;SDS011;9179;50.968;3.134;2023-10-09T05:58:20;24.58;;;22.17;;
18104;SDS011;9179;50.968;3.134;2023-10-09T06:01:04;28.08;;;25.08;;
18104;SDS011;9179;50.968;3.134;2023-10-09T06:03:48;26.42;;;23.85;;
18104;SDS011;9179;50.968;3.134;2023-10-09T06:06:19;24.95;;;22.48;;
18104;SDS011;9179;50.968;3.134;2023-10-09T06:08:59;26.00;;;23.10;;
18104;SDS011;9179;50.968;3.134;2023-10-09T06:11:46;27.45;;;24.42;;
18104;SDS011;9179;50.968;3.134;2023-10-09T06:14:20;25.80;;;23.05;;
18104;SDS011;9179;50.968;3.134;2023-10-09T06:16:50;27.63;;;23.45;;
18104;SDS011;9179;50.968;3.134;2023-10-09T06:19:26;27.85;;;24.95;;
18104;SDS011;9179;50.968;3.134;2023-10-09T06:21:53;27.42;;;24.50;;
18104;SDS011;9179;50.968;3.134;2023-10-09T06:25:05;26.55;;;23.85;;
18104;SDS011;9179;50.968;3.134;2023-10-09T06:27:35;26.70;;;24.10;;
18104;SDS011;9179;50.968;3.134;2023-10-09T06:30:16;29.45;;;26.63;;
18104;SDS011;9179;50.968;3.134;2023-10-09T06:32:50;27.52;;;24.88;;
18104;SDS011;9179;50.968;3.134;2023-10-09T06:35:22;26.73;;;23.90;;
18104;SDS011;9179;50.968;3.134;2023-10-09T06:37:55;28.63;;;24.50;;
18104;SDS011;9179;50.968;3.134;2023-10-09T06:40:40;28.23;;;25.27;;
18104;SDS011;9179;50.968;3.134;2023-10-09T06:43:38;27.08;;;24.20;;
18104;SDS011;9179;50.968;3.134;2023-10-09T06:46:16;26.48;;;23.67;;
18104;SDS011;9179;50.968;3.134;2023-10-09T06:48:59;27.83;;;24.92;;
18104;SDS011;9179;50.968;3.134;2023-10-09T06:51:46;26.42;;;23.63;;
18104;SDS011;9179;50.968;3.134;2023-10-09T06:54:12;27.00;;;24.20;;
18104;SDS011;9179;50.968;3.134;2023-10-09T06:56:41;26.40;;;23.83;;
18104;SDS011;9179;50.968;3.134;2023-10-09T06:59:27;25.85;;;23.23;;
18104;SDS011;9179;50.968;3.134;2023-10-09T07:02:06;26.85;;;24.02;;
18104;SDS011;9179;50.968;3.134;2023-10-09T07:04:51;25.95;;;23.27;;
18104;SDS011;9179;50.968;3.134;2023-10-09T07:07:20;26.30;;;23.55;;
18104;SDS011;9179;50.968;3.134;2023-10-09T07:09:49;23.33;;;21.13;;
18104;SDS011;9179;50.968;3.134;2023-10-09T07:12:35;24.98;;;22.58;;
18104;SDS011;9179;50.968;3.134;2023-10-09T07:15:10;24.55;;;21.88;;
18104;SDS011;9179;50.968;3.134;2023-10-09T07:18:06;24.60;;;21.55;;
18104;SDS011;9179;50.968;3.134;2023-10-09T07:20:48;24.73;;;20.75;;
18104;SDS011;9179;50.968;3.134;2023-10-09T07:23:26;23.67;;;21.25;;
18104;SDS011;9179;50.968;3.134;2023-10-09T07:26:02;21.10;;;18.98;;
18104;SDS011;9179;50.968;3.134;2023-10-09T07:28:44;21.35;;;19.13;;
18104;SDS011;9179;50.968;3.134;2023-10-09T07:31:18;21.42;;;19.17;;
18104;SDS011;9179;50.968;3.134;2023-10-09T07:33:54;23.42;;;21.17;;
18104;SDS011;9179;50.968;3.134;2023-10-09T07:36:24;23.42;;;21.23;;
18104;SDS011;9179;50.968;3.134;2023-10-09T07:39:03;24.02;;;21.48;;
18104;SDS011;9179;50.968;3.134;2023-10-09T07:41:38;23.33;;;20.92;;
18104;SDS011;9179;50.968;3.134;2023-10-09T07:44:10;22.38;;;20.27;;
18104;SDS011;9179;50.968;3.134;2023-10-09T07:46:54;21.55;;;19.25;;
18104;SDS011;9179;50.968;3.134;2023-10-09T07:49:39;21.77;;;19.40;;
18104;SDS011;9179;50.968;3.134;2023-10-09T07:52:05;23.23;;;20.77;;
18104;SDS011;9179;50.968;3.134;2023-10-09T07:54:32;22.15;;;19.85;;
18104;SDS011;9179;50.968;3.134;2023-10-09T07:56:59;22.08;;;19.88;;
18104;SDS011;9179;50.968;3.134;2023-10-09T07:59:34;21.77;;;19.70;;
18104;SDS011;9179;50.968;3.134;2023-10-09T08:02:07;23.83;;;20.52;;
18104;SDS011;9179;50.968;3.134;2023-10-09T08:04:39;22.42;;;19.38;;
18104;SDS011;9179;50.968;3.134;2023-10-09T08:07:14;23.05;;;20.83;;
18104;SDS011;9179;50.968;3.134;2023-10-09T08:09:50;23.13;;;20.85;;
18104;SDS011;9179;50.968;3.134;2023-10-09T08:12:42;23.10;;;20.55;;
18104;SDS011;9179;50.968;3.134;2023-10-09T08:15:25;21.88;;;19.67;;
18104;SDS011;9179;50.968;3.134;2023-10-09T08:18:01;23.42;;;21.02;;
18104;SDS011;9179;50.968;3.134;2023-10-09T08:20:35;22.90;;;20.45;;
18104;SDS011;9179;50.968;3.134;2023-10-09T08:23:37;20.40;;;18.50;;
18104;SDS011;9179;50.968;3.134;2023-10-09T08:26:13;22.95;;;20.52;;
18104;SDS011;9179;50.968;3.134;2023-10-09T08:28:54;21.83;;;19.55;;
18104;SDS011;9179;50.968;3.134;2023-10-09T08:31:41;22.38;;;19.75;;
18104;SDS011;9179;50.968;3.134;2023-10-09T08:34:23;27.83;;;21.20;;
18104;SDS011;9179;50.968;3.134;2023-10-09T08:36:50;23.13;;;20.20;;
18104;SDS011;9179;50.968;3.134;2023-10-09T08:39:19;33.03;;;21.20;;
18104;SDS011;9179;50.968;3.134;2023-10-09T08:41:51;23.17;;;20.00;;
18104;SDS011;9179;50.968;3.134;2023-10-09T08:44:19;21.75;;;19.48;;
18104;SDS011;9179;50.968;3.134;2023-10-09T08:46:50;21.38;;;19.15;;
18104;SDS011;9179;50.968;3.134;2023-10-09T08:49:19;20.98;;;18.73;;
18104;SDS011;9179;50.968;3.134;2023-10-09T08:51:47;22.10;;;19.80;;
18104;SDS011;9179;50.968;3.134;2023-10-09T08:54:17;21.90;;;19.73;;
18104;SDS011;9179;50.968;3.134;2023-10-09T08:56:45;22.95;;;19.77;;
18104;SDS011;9179;50.968;3.134;2023-10-09T08:59:15;20.27;;;18.23;;
18104;SDS011;9179;50.968;3.134;2023-10-09T09:01:44;21.27;;;19.17;;
18104;SDS011;9179;50.968;3.134;2023-10-09T09:07:07;22.10;;;19.17;;
18104;SDS011;9179;50.968;3.134;2023-10-09T09:09:54;21.15;;;18.83;;
18104;SDS011;9179;50.968;3.134;2023-10-09T09:12:22;23.13;;;20.65;;
18104;SDS011;9179;50.968;3.134;2023-10-09T09:14:50;21.77;;;19.67;;
18104;SDS011;9179;50.968;3.134;2023-10-09T09:17:22;20.48;;;17.92;;
18104;SDS011;9179;50.968;3.134;2023-10-09T09:19:55;20.15;;;18.13;;
18104;SDS011;9179;50.968;3.134;2023-10-09T09:22:24;20.45;;;17.77;;
18104;SDS011;9179;50.968;3.134;2023-10-09T09:24:57;18.77;;;16.95;;
18104;SDS011;9179;50.968;3.134;2023-10-09T09:30:22;19.55;;;17.65;;
18104;SDS011;9179;50.968;3.134;2023-10-09T09:32:50;19.75;;;17.98;;
18104;SDS011;9179;50.968;3.134;2023-10-09T09:35:37;19.80;;;17.67;;
18104;SDS011;9179;50.968;3.134;2023-10-09T09:38:09;19.30;;;17.48;;
18104;SDS011;9179;50.968;3.134;2023-10-09T09:40:42;20.33;;;18.33;;
18104;SDS011;9179;50.968;3.134;2023-10-09T09:43:10;18.75;;;16.95;;
18104;SDS011;9179;50.968;3.134;2023-10-09T09:45:46;19.60;;;17.20;;
18104;SDS011;9179;50.968;3.134;2023-10-09T09:48:15;23.27;;;17.65;;
18104;SDS011;9179;50.968;3.134;2023-10-09T09:50:43;21.55;;;17.60;;
18104;SDS011;9179;50.968;3.134;2023-10-09T09:53:12;17.90;;;16.20;;
18104;SDS011;9179;50.968;3.134;2023-10-09T09:55:42;18.70;;;16.77;;
18104;SDS011;9179;50.968;3.134;2023-10-09T09:58:17;17.63;;;15.70;;
18104;SDS011;9179;50.968;3.134;2023-10-09T10:00:45;18.10;;;16.23;;
18104;SDS011;9179;50.968;3.134;2023-10-09T10:03:18;17.23;;;15.40;;
18104;SDS011;9179;50.968;3.134;2023-10-09T10:05:48;17.95;;;16.10;;
18104;SDS011;9179;50.968;3.134;2023-10-09T10:08:19;18.73;;;16.75;;
18104;SDS011;9179;50.968;3.134;2023-10-09T10:10:48;17.30;;;15.63;;
18104;SDS011;9179;50.968;3.134;2023-10-09T10:13:17;16.25;;;14.73;;
18104;SDS011;9179;50.968;3.134;2023-10-09T10:16:09;15.15;;;13.65;;
18104;SDS011;9179;50.968;3.134;2023-10-09T10:18:54;17.15;;;15.45;;
18104;SDS011;9179;50.968;3.134;2023-10-09T10:21:32;16.13;;;14.52;;
18104;SDS011;9179;50.968;3.134;2023-10-09T10:24:04;15.70;;;14.02;;
18104;SDS011;9179;50.968;3.134;2023-10-09T10:27:08;15.68;;;14.00;;
18104;SDS011;9179;50.968;3.134;2023-10-09T10:32:52;16.02;;;14.43;;
18104;SDS011;9179;50.968;3.134;2023-10-09T10:35:21;17.95;;;14.02;;
18104;SDS011;9179;50.968;3.134;2023-10-09T10:37:57;15.75;;;13.80;;
18104;SDS011;9179;50.968;3.134;2023-10-09T10:40:37;14.95;;;13.35;;
18104;SDS011;9179;50.968;3.134;2023-10-09T10:43:06;15.60;;;13.93;;
18104;SDS011;9179;50.968;3.134;2023-10-09T10:45:39;16.67;;;13.55;;
18104;SDS011;9179;50.968;3.134;2023-10-09T10:48:09;14.48;;;12.95;;
18104;SDS011;9179;50.968;3.134;2023-10-09T10:50:48;15.40;;;13.85;;
18104;SDS011;9179;50.968;3.134;2023-10-09T10:53:22;15.52;;;13.98;;
18104;SDS011;9179;50.968;3.134;2023-10-09T10:55:56;15.18;;;13.20;;
18104;SDS011;9179;50.968;3.134;2023-10-09T10:58:23;14.45;;;13.05;;
18104;SDS011;9179;50.968;3.134;2023-10-09T11:01:00;15.38;;;13.77;;
18104;SDS011;9179;50.968;3.134;2023-10-09T11:03:37;17.17;;;13.27;;
18104;SDS011;9179;50.968;3.134;2023-10-09T11:06:27;16.88;;;13.50;;
18104;SDS011;9179;50.968;3.134;2023-10-09T11:09:02;16.13;;;13.00;;
18104;SDS011;9179;50.968;3.134;2023-10-09T11:11:47;14.73;;;12.95;;
18104;SDS011;9179;50.968;3.134;2023-10-09T11:14:15;14.35;;;12.45;;
18104;SDS011;9179;50.968;3.134;2023-10-09T11:16:48;13.90;;;11.07;;
18104;SDS011;9179;50.968;3.134;2023-10-09T11:19:18;13.23;;;11.82;;
18104;SDS011;9179;50.968;3.134;2023-10-09T11:22:01;21.98;;;12.60;;
18104;SDS011;9179;50.968;3.134;2023-10-09T11:24:48;13.55;;;11.15;;
18104;SDS011;9179;50.968;3.134;2023-10-09T11:27:39;12.65;;;11.05;;
18104;SDS011;9179;50.968;3.134;2023-10-09T11:30:15;13.32;;;11.88;;
18104;SDS011;9179;50.968;3.134;2023-10-09T11:32:47;15.07;;;12.38;;
18104;SDS011;9179;50.968;3.134;2023-10-09T11:35:14;14.88;;;12.70;;
18104;SDS011;9179;50.968;3.134;2023-10-09T11:37:54;14.02;;;12.55;;
18104;SDS011;9179;50.968;3.134;2023-10-09T11:40:28;16.45;;;11.95;;
18104;SDS011;9179;50.968;3.134;2023-10-09T11:43:01;16.52;;;12.68;;
18104;SDS011;9179;50.968;3.134;2023-10-09T11:45:29;14.50;;;13.07;;
18104;SDS011;9179;50.968;3.134;2023-10-09T11:47:56;14.18;;;12.75;;
18104;SDS011;9179;50.968;3.134;2023-10-09T11:50:40;14.40;;;12.80;;
18104;SDS011;9179;50.968;3.134;2023-10-09T11:53:14;14.38;;;12.82;;
18104;SDS011;9179;50.968;3.134;2023-10-09T11:55:58;15.13;;;12.68;;
18104;SDS011;9179;50.968;3.134;2023-10-09T11:58:26;13.82;;;12.15;;
18104;SDS011;9179;50.968;3.134;2023-10-09T12:00:52;14.85;;;12.13;;
18104;SDS011;9179;50.968;3.134;2023-10-09T12:03:24;13.40;;;11.70;;
18104;SDS011;9179;50.968;3.134;2023-10-09T12:05:54;12.55;;;11.30;;
18104;SDS011;9179;50.968;3.134;2023-10-09T12:08:22;11.90;;;10.60;;
18104;SDS011;9179;50.968;3.134;2023-10-09T12:10:52;12.95;;;11.60;;
18104;SDS011;9179;50.968;3.134;2023-10-09T12:13:21;12.13;;;10.93;;
18104;SDS011;9179;50.968;3.134;2023-10-09T12:15:50;11.95;;;10.75;;
18104;SDS011;9179;50.968;3.134;2023-10-09T12:18:19;12.40;;;10.95;;
18104;SDS011;9179;50.968;3.134;2023-10-09T12:20:47;17.55;;;12.15;;
18104;SDS011;9179;50.968;3.134;2023-10-09T12:23:17;13.10;;;10.95;;
18104;SDS011;9179;50.968;3.134;2023-10-09T12:25:44;13.77;;;11.52;;
18104;SDS011;9179;50.968;3.134;2023-10-09T12:28:12;13.35;;;12.00;;
18104;SDS011;9179;50.968;3.134;2023-10-09T12:30:40;13.43;;;11.98;;
18104;SDS011;9179;50.968;3.134;2023-10-09T12:33:08;12.68;;;11.30;;
18104;SDS011;9179;50.968;3.134;2023-10-09T12:35:37;11.48;;;10.35;;
18104;SDS011;9179;50.968;3.134;2023-10-09T12:38:05;12.43;;;11.15;;
18104;SDS011;9179;50.968;3.134;2023-10-09T12:40:35;10.77;;;9.68;;
18104;SDS011;9179;50.968;3.134;2023-10-09T12:43:04;10.30;;;9.10;;
18104;SDS011;9179;50.968;3.134;2023-10-09T12:45:40;12.35;;;9.00;;
18104;SDS011;9179;50.968;3.134;2023-10-09T12:48:08;9.95;;;8.40;;
18104;SDS011;9179;50.968;3.134;2023-10-09T12:50:35;10.93;;;8.75;;
18104;SDS011;9179;50.968;3.134;2023-10-09T12:53:07;10.13;;;8.57;;
18104;SDS011;9179;50.968;3.134;2023-10-09T12:55:35;11.00;;;9.80;;
18104;SDS011;9179;50.968;3.134;2023-10-09T12:58:05;10.73;;;9.63;;
18104;SDS011;9179;50.968;3.134;2023-10-09T13:00:34;10.45;;;9.27;;
18104;SDS011;9179;50.968;3.134;2023-10-09T13:03:03;14.68;;;10.43;;
18104;SDS011;9179;50.968;3.134;2023-10-09T13:05:43;10.77;;;9.68;;
18104;SDS011;9179;50.968;3.134;2023-10-09T13:08:17;11.10;;;9.98;;
18104;SDS011;9179;50.968;3.134;2023-10-09T13:10:46;13.50;;;9.27;;
18104;SDS011;9179;50.968;3.134;2023-10-09T13:13:20;12.18;;;10.20;;
18104;SDS011;9179;50.968;3.134;2023-10-09T13:15:47;14.25;;;11.10;;
18104;SDS011;9179;50.968;3.134;2023-10-09T13:18:14;11.65;;;9.88;;
18104;SDS011;9179;50.968;3.134;2023-10-09T13:20:42;9.95;;;8.60;;
18104;SDS011;9179;50.968;3.134;2023-10-09T13:23:10;14.80;;;9.32;;
18104;SDS011;9179;50.968;3.134;2023-10-09T13:25:41;9.88;;;8.85;;
18104;SDS011;9179;50.968;3.134;2023-10-09T13:28:09;11.43;;;9.32;;
18104;SDS011;9179;50.968;3.134;2023-10-09T13:30:37;11.63;;;9.25;;
18104;SDS011;9179;50.968;3.134;2023-10-09T13:33:14;13.77;;;10.15;;
18104;SDS011;9179;50.968;3.134;2023-10-09T13:35:43;9.43;;;7.40;;
18104;SDS011;9179;50.968;3.134;2023-10-09T13:38:15;13.85;;;8.48;;
18104;SDS011;9179;50.968;3.134;2023-10-09T13:40:42;14.25;;;8.45;;
18104;SDS011;9179;50.968;3.134;2023-10-09T13:43:09;11.75;;;7.82;;
18104;SDS011;9179;50.968;3.134;2023-10-09T13:45:41;9.77;;;8.00;;
18104;SDS011;9179;50.968;3.134;2023-10-09T13:48:14;10.10;;;8.60;;
18104;SDS011;9179;50.968;3.134;2023-10-09T13:50:44;8.63;;;7.70;;
18104;SDS011;9179;50.968;3.134;2023-10-09T13:53:12;15.10;;;7.10;;
18104;SDS011;9179;50.968;3.134;2023-10-09T13:55:40;10.15;;;7.70;;
18104;SDS011;9179;50.968;3.134;2023-10-09T13:58:09;10.75;;;8.93;;
18104;SDS011;9179;50.968;3.134;2023-10-09T14:00:39;9.38;;;7.82;;
18104;SDS011;9179;50.968;3.134;2023-10-09T14:03:08;13.05;;;8.30;;
18104;SDS011;9179;50.968;3.134;2023-10-09T14:05:38;10.18;;;7.93;;
18104;SDS011;9179;50.968;3.134;2023-10-09T14:08:18;11.02;;;8.15;;
18104;SDS011;9179;50.968;3.134;2023-10-09T14:10:48;9.07;;;7.38;;
18104;SDS011;9179;50.968;3.134;2023-10-09T14:13:15;11.43;;;7.72;;
18104;SDS011;9179;50.968;3.134;2023-10-09T14:15:51;10.70;;;7.22;;
18104;SDS011;9179;50.968;3.134;2023-10-09T14:18:19;9.10;;;8.00;;
18104;SDS011;9179;50.968;3.134;2023-10-09T14:20:47;10.75;;;7.25;;
18104;SDS011;9179;50.968;3.134;2023-10-09T14:23:15;9.60;;;8.60;;
18104;SDS011;9179;50.968;3.134;2023-10-09T14:25:47;9.32;;;7.47;;
18104;SDS011;9179;50.968;3.134;2023-10-09T14:28:15;11.77;;;8.32;;
18104;SDS011;9179;50.968;3.134;2023-10-09T14:30:44;7.93;;;7.10;;
18104;SDS011;9179;50.968;3.134;2023-10-09T14:33:15;9.45;;;7.57;;
18104;SDS011;9179;50.968;3.134;2023-10-09T14:35:47;9.85;;;7.40;;
18104;SDS011;9179;50.968;3.134;2023-10-09T14:38:17;8.65;;;7.80;;
18104;SDS011;9179;50.968;3.134;2023-10-09T14:40:53;10.05;;;8.32;;
18104;SDS011;9179;50.968;3.134;2023-10-09T14:43:22;9.30;;;8.40;;
18104;SDS011;9179;50.968;3.134;2023-10-09T14:45:53;9.38;;;8.15;;
18104;SDS011;9179;50.968;3.134;2023-10-09T14:48:20;10.88;;;8.25;;
18104;SDS011;9179;50.968;3.134;2023-10-09T14:50:51;9.65;;;7.65;;
18104;SDS011;9179;50.968;3.134;2023-10-09T14:53:19;9.48;;;7.75;;
18104;SDS011;9179;50.968;3.134;2023-10-09T14:55:46;9.95;;;8.02;;
18104;SDS011;9179;50.968;3.134;2023-10-09T14:58:21;11.52;;;8.95;;
18104;SDS011;9179;50.968;3.134;2023-10-09T15:00:50;16.85;;;9.68;;
18104;SDS011;9179;50.968;3.134;2023-10-09T15:03:18;11.57;;;9.23;;
18104;SDS011;9179;50.968;3.134;2023-10-09T15:05:45;11.88;;;8.88;;
18104;SDS011;9179;50.968;3.134;2023-10-09T15:08:12;10.80;;;7.93;;
18104;SDS011;9179;50.968;3.134;2023-10-09T15:10:45;10.73;;;7.93;;
18104;SDS011;9179;50.968;3.134;2023-10-09T15:13:14;11.10;;;8.27;;
18104;SDS011;9179;50.968;3.134;2023-10-09T15:15:42;15.60;;;8.57;;
18104;SDS011;9179;50.968;3.134;2023-10-09T15:18:10;11.52;;;8.52;;
18104;SDS011;9179;50.968;3.134;2023-10-09T15:20:38;13.25;;;8.38;;
18104;SDS011;9179;50.968;3.134;2023-10-09T15:23:06;11.57;;;8.18;;
18104;SDS011;9179;50.968;3.134;2023-10-09T15:25:34;13.57;;;8.50;;
18104;SDS011;9179;50.968;3.134;2023-10-09T15:28:04;9.25;;;7.18;;
18104;SDS011;9179;50.968;3.134;2023-10-09T15:30:33;8.75;;;7.60;;